sensor_id;sensor_type;location;lat;lon;timestamp;P1;durP1;ratioP1;P2;durP2;ratioP2
289;SDS011;13193;48.874;9.086;2022-09-03T00:02:21;5.90;;;2.23;;
289;SDS011;13193;48.874;9.086;2022-09-03T00:04:54;2.60;;;1.77;;
289;SDS011;13193;48.874;9.086;2022-09-03T00:08:01;4.53;;;2.60;;
289;SDS011;13193;48.874;9.086;2022-09-03T00:10:35;3.43;;;2.20;;
289;SDS011;13193;48.874;9.086;2022-09-03T00:13:08;4.50;;;2.53;;
289;SDS011;13193;48.874;9.086;2022-09-03T00:15:38;6.07;;;2.47;;
289;SDS011;13193;48.874;9.086;2022-09-03T00:18:09;4.20;;;2.63;;
289;SDS011;13193;48.874;9.086;2022-09-03T00:20:42;4.43;;;2.80;;
289;SDS011;13193;48.874;9.086;2022-09-03T00:23:23;3.60;;;1.80;;
289;SDS011;13193;48.874;9.086;2022-09-03T00:25:53;4.23;;;2.37;;
289;SDS011;13193;48.874;9.086;2022-09-03T00:28:45;2.67;;;1.97;;
289;SDS011;13193;48.874;9.086;2022-09-03T00:31:17;2.90;;;1.80;;
289;SDS011;13193;48.874;9.086;2022-09-03T00:33:55;3.80;;;2.40;;
289;SDS011;13193;48.874;9.086;2022-09-03T00:36:34;4.37;;;2.43;;
289;SDS011;13193;48.874;9.086;2022-09-03T00:39:08;4.33;;;1.90;;
289;SDS011;13193;48.874;9.086;2022-09-03T00:41:36;5.23;;;2.50;;
289;SDS011;13193;48.874;9.086;2022-09-03T00:44:14;6.10;;;2.70;;
289;SDS011;13193;48.874;9.086;2022-09-03T00:49:49;4.90;;;2.70;;
289;SDS011;13193;48.874;9.086;2022-09-03T01:11:02;5.30;;;2.17;;
289;SDS011;13193;48.874;9.086;2022-09-03T01:14:30;6.17;;;2.57;;
289;SDS011;13193;48.874;9.086;2022-09-03T01:22:34;6.47;;;2.20;;
289;SDS011;13193;48.874;9.086;2022-09-03T01:30:54;5.27;;;2.33;;
289;SDS011;13193;48.874;9.086;2022-09-03T01:33:28;2.93;;;1.60;;
289;SDS011;13193;48.874;9.086;2022-09-03T01:36:20;4.70;;;1.80;;
289;SDS011;13193;48.874;9.086;2022-09-03T01:39:03;4.57;;;2.20;;
289;SDS011;13193;48.874;9.086;2022-09-03T01:58:23;3.97;;;2.60;;
289;SDS011;13193;48.874;9.086;2022-09-03T02:01:02;4.60;;;2.73;;
289;SDS011;13193;48.874;9.086;2022-09-03T02:03:35;4.03;;;2.10;;
289;SDS011;13193;48.874;9.086;2022-09-03T02:06:04;6.80;;;2.40;;
289;SDS011;13193;48.874;9.086;2022-09-03T02:08:31;3.70;;;1.80;;
289;SDS011;13193;48.874;9.086;2022-09-03T02:10:57;2.40;;;1.77;;
289;SDS011;13193;48.874;9.086;2022-09-03T02:16:11;6.23;;;1.90;;
289;SDS011;13193;48.874;9.086;2022-09-03T02:18:43;5.37;;;2.23;;
289;SDS011;13193;48.874;9.086;2022-09-03T02:21:15;3.00;;;2.03;;
289;SDS011;13193;48.874;9.086;2022-09-03T02:23:44;6.30;;;2.40;;
289;SDS011;13193;48.874;9.086;2022-09-03T02:26:10;3.77;;;2.03;;
289;SDS011;13193;48.874;9.086;2022-09-03T02:28:39;3.70;;;2.10;;
289;SDS011;13193;48.874;9.086;2022-09-03T02:31:05;3.37;;;2.33;;
289;SDS011;13193;48.874;9.086;2022-09-03T02:33:35;2.97;;;2.00;;
289;SDS011;13193;48.874;9.086;2022-09-03T02:36:04;3.20;;;2.00;;
289;SDS011;13193;48.874;9.086;2022-09-03T02:38:32;8.37;;;1.83;;
289;SDS011;13193;48.874;9.086;2022-09-03T02:40:58;3.77;;;2.07;;
289;SDS011;13193;48.874;9.086;2022-09-03T02:43:26;4.43;;;2.00;;
289;SDS011;13193;48.874;9.086;2022-09-03T02:45:54;5.80;;;2.03;;
289;SDS011;13193;48.874;9.086;2022-09-03T02:48:25;3.00;;;1.77;;
289;SDS011;13193;48.874;9.086;2022-09-03T02:50:51;5.50;;;2.50;;
289;SDS011;13193;48.874;9.086;2022-09-03T02:53:17;5.07;;;3.00;;
289;SDS011;13193;48.874;9.086;2022-09-03T02:55:43;8.10;;;3.03;;
289;SDS011;13193;48.874;9.086;2022-09-03T02:58:09;6.03;;;2.17;;
289;SDS011;13193;48.874;9.086;2022-09-03T03:00:34;4.53;;;2.10;;
289;SDS011;13193;48.874;9.086;2022-09-03T03:03:04;3.90;;;2.70;;
289;SDS011;13193;48.874;9.086;2022-09-03T03:06:12;6.10;;;2.60;;
289;SDS011;13193;48.874;9.086;2022-09-03T03:08:21;4.33;;;2.63;;
289;SDS011;13193;48.874;9.086;2022-09-03T03:10:54;5.20;;;2.60;;
289;SDS011;13193;48.874;9.086;2022-09-03T03:13:23;3.90;;;2.40;;
289;SDS011;13193;48.874;9.086;2022-09-03T03:15:49;8.00;;;2.20;;
289;SDS011;13193;48.874;9.086;2022-09-03T03:18:14;6.13;;;3.00;;
289;SDS011;13193;48.874;9.086;2022-09-03T03:20:41;4.97;;;2.70;;
289;SDS011;13193;48.874;9.086;2022-09-03T03:23:08;6.23;;;2.67;;
289;SDS011;13193;48.874;9.086;2022-09-03T03:25:34;7.83;;;2.50;;
289;SDS011;13193;48.874;9.086;2022-09-03T03:28:01;3.90;;;2.47;;
289;SDS011;13193;48.874;9.086;2022-09-03T03:30:28;4.50;;;2.63;;
289;SDS011;13193;48.874;9.086;2022-09-03T03:32:54;3.43;;;2.13;;
289;SDS011;13193;48.874;9.086;2022-09-03T03:35:20;3.23;;;2.40;;
289;SDS011;13193;48.874;9.086;2022-09-03T03:37:47;6.70;;;2.33;;
289;SDS011;13193;48.874;9.086;2022-09-03T03:40:12;5.90;;;2.90;;
289;SDS011;13193;48.874;9.086;2022-09-03T03:42:39;3.00;;;2.30;;
289;SDS011;13193;48.874;9.086;2022-09-03T03:45:05;5.40;;;2.63;;
289;SDS011;13193;48.874;9.086;2022-09-03T03:47:31;3.07;;;2.00;;
289;SDS011;13193;48.874;9.086;2022-09-03T03:49:57;5.43;;;2.43;;
289;SDS011;13193;48.874;9.086;2022-09-03T03:52:24;3.63;;;2.30;;
289;SDS011;13193;48.874;9.086;2022-09-03T03:54:51;4.10;;;2.47;;
289;SDS011;13193;48.874;9.086;2022-09-03T03:57:18;11.50;;;2.70;;
289;SDS011;13193;48.874;9.086;2022-09-03T03:59:45;3.93;;;2.50;;
289;SDS011;13193;48.874;9.086;2022-09-03T04:02:14;3.67;;;2.60;;
289;SDS011;13193;48.874;9.086;2022-09-03T04:04:41;6.73;;;2.10;;
289;SDS011;13193;48.874;9.086;2022-09-03T04:07:07;2.77;;;1.77;;
289;SDS011;13193;48.874;9.086;2022-09-03T04:09:32;9.23;;;2.60;;
289;SDS011;13193;48.874;9.086;2022-09-03T04:11:59;3.90;;;2.30;;
289;SDS011;13193;48.874;9.086;2022-09-03T04:14:25;5.07;;;2.40;;
289;SDS011;13193;48.874;9.086;2022-09-03T04:16:52;4.60;;;2.43;;
289;SDS011;13193;48.874;9.086;2022-09-03T04:19:19;5.27;;;2.60;;
289;SDS011;13193;48.874;9.086;2022-09-03T04:21:45;7.30;;;2.53;;
289;SDS011;13193;48.874;9.086;2022-09-03T04:24:10;4.90;;;2.00;;
289;SDS011;13193;48.874;9.086;2022-09-03T04:26:36;3.90;;;2.00;;
289;SDS011;13193;48.874;9.086;2022-09-03T04:29:04;3.00;;;2.03;;
289;SDS011;13193;48.874;9.086;2022-09-03T04:31:32;3.90;;;1.83;;
289;SDS011;13193;48.874;9.086;2022-09-03T04:33:58;3.40;;;1.93;;
289;SDS011;13193;48.874;9.086;2022-09-03T04:36:25;5.20;;;3.00;;
289;SDS011;13193;48.874;9.086;2022-09-03T04:38:53;4.13;;;2.10;;
289;SDS011;13193;48.874;9.086;2022-09-03T04:41:21;4.97;;;2.10;;
289;SDS011;13193;48.874;9.086;2022-09-03T04:43:51;3.37;;;2.00;;
289;SDS011;13193;48.874;9.086;2022-09-03T04:46:19;3.87;;;2.30;;
289;SDS011;13193;48.874;9.086;2022-09-03T04:48:49;9.83;;;2.00;;
289;SDS011;13193;48.874;9.086;2022-09-03T04:51:18;4.20;;;2.57;;
289;SDS011;13193;48.874;9.086;2022-09-03T04:53:46;4.67;;;1.83;;
289;SDS011;13193;48.874;9.086;2022-09-03T04:56:14;8.73;;;2.50;;
289;SDS011;13193;48.874;9.086;2022-09-03T04:58:42;10.03;;;2.20;;
289;SDS011;13193;48.874;9.086;2022-09-03T05:01:09;5.77;;;2.00;;
289;SDS011;13193;48.874;9.086;2022-09-03T05:03:36;4.30;;;1.90;;
289;SDS011;13193;48.874;9.086;2022-09-03T05:06:02;2.93;;;2.20;;
289;SDS011;13193;48.874;9.086;2022-09-03T05:08:30;4.60;;;2.13;;
289;SDS011;13193;48.874;9.086;2022-09-03T05:10:59;4.17;;;2.43;;
289;SDS011;13193;48.874;9.086;2022-09-03T05:13:25;6.50;;;2.00;;
289;SDS011;13193;48.874;9.086;2022-09-03T05:15:52;7.80;;;2.03;;
289;SDS011;13193;48.874;9.086;2022-09-03T05:18:23;3.77;;;2.00;;
289;SDS011;13193;48.874;9.086;2022-09-03T05:20:56;2.90;;;2.03;;
289;SDS011;13193;48.874;9.086;2022-09-03T05:23:28;6.00;;;2.10;;
289;SDS011;13193;48.874;9.086;2022-09-03T05:25:59;4.23;;;2.07;;
289;SDS011;13193;48.874;9.086;2022-09-03T05:28:26;4.83;;;2.17;;
289;SDS011;13193;48.874;9.086;2022-09-03T05:31:01;8.13;;;2.13;;
289;SDS011;13193;48.874;9.086;2022-09-03T05:33:28;3.90;;;2.70;;
289;SDS011;13193;48.874;9.086;2022-09-03T05:36:01;3.90;;;2.40;;
289;SDS011;13193;48.874;9.086;2022-09-03T05:38:31;6.63;;;2.60;;
289;SDS011;13193;48.874;9.086;2022-09-03T05:41:01;6.70;;;2.63;;
289;SDS011;13193;48.874;9.086;2022-09-03T05:43:29;13.47;;;2.80;;
289;SDS011;13193;48.874;9.086;2022-09-03T05:45:56;5.00;;;2.13;;
289;SDS011;13193;48.874;9.086;2022-09-03T05:48:26;7.53;;;2.47;;
289;SDS011;13193;48.874;9.086;2022-09-03T05:51:05;10.33;;;2.70;;
289;SDS011;13193;48.874;9.086;2022-09-03T05:53:33;5.40;;;2.17;;
289;SDS011;13193;48.874;9.086;2022-09-03T05:56:01;3.40;;;2.30;;
289;SDS011;13193;48.874;9.086;2022-09-03T05:58:30;4.90;;;2.63;;
289;SDS011;13193;48.874;9.086;2022-09-03T06:00:57;6.00;;;2.70;;
289;SDS011;13193;48.874;9.086;2022-09-03T06:03:23;8.17;;;3.03;;
289;SDS011;13193;48.874;9.086;2022-09-03T06:05:49;5.63;;;2.60;;
289;SDS011;13193;48.874;9.086;2022-09-03T06:08:19;3.23;;;2.17;;
289;SDS011;13193;48.874;9.086;2022-09-03T06:10:46;6.30;;;2.80;;
289;SDS011;13193;48.874;9.086;2022-09-03T06:13:12;4.83;;;2.87;;
289;SDS011;13193;48.874;9.086;2022-09-03T06:15:37;4.40;;;2.40;;
289;SDS011;13193;48.874;9.086;2022-09-03T06:18:04;9.13;;;2.60;;
289;SDS011;13193;48.874;9.086;2022-09-03T06:20:30;5.70;;;2.40;;
289;SDS011;13193;48.874;9.086;2022-09-03T06:22:56;4.43;;;2.20;;
289;SDS011;13193;48.874;9.086;2022-09-03T06:25:22;6.00;;;2.57;;
289;SDS011;13193;48.874;9.086;2022-09-03T06:27:48;4.13;;;2.20;;
289;SDS011;13193;48.874;9.086;2022-09-03T06:30:14;3.60;;;2.37;;
289;SDS011;13193;48.874;9.086;2022-09-03T06:32:46;4.37;;;2.70;;
289;SDS011;13193;48.874;9.086;2022-09-03T06:35:14;3.37;;;2.30;;
289;SDS011;13193;48.874;9.086;2022-09-03T06:37:41;4.87;;;2.47;;
289;SDS011;13193;48.874;9.086;2022-09-03T06:42:55;7.50;;;3.10;;
289;SDS011;13193;48.874;9.086;2022-09-03T06:48:50;5.80;;;2.70;;
289;SDS011;13193;48.874;9.086;2022-09-03T06:51:32;4.00;;;2.57;;
289;SDS011;13193;48.874;9.086;2022-09-03T06:54:08;4.60;;;2.63;;
289;SDS011;13193;48.874;9.086;2022-09-03T06:56:37;14.83;;;2.80;;
289;SDS011;13193;48.874;9.086;2022-09-03T06:59:10;6.60;;;2.93;;
289;SDS011;13193;48.874;9.086;2022-09-03T07:01:37;11.10;;;3.17;;
289;SDS011;13193;48.874;9.086;2022-09-03T07:04:06;4.80;;;2.37;;
289;SDS011;13193;48.874;9.086;2022-09-03T07:06:36;12.50;;;2.50;;
289;SDS011;13193;48.874;9.086;2022-09-03T07:09:07;5.33;;;2.77;;
289;SDS011;13193;48.874;9.086;2022-09-03T07:11:36;3.63;;;2.10;;
289;SDS011;13193;48.874;9.086;2022-09-03T07:14:10;10.00;;;2.63;;
289;SDS011;13193;48.874;9.086;2022-09-03T07:16:35;11.33;;;6.10;;
289;SDS011;13193;48.874;9.086;2022-09-03T07:19:01;6.50;;;2.90;;
289;SDS011;13193;48.874;9.086;2022-09-03T07:21:29;4.20;;;2.60;;
289;SDS011;13193;48.874;9.086;2022-09-03T07:23:57;10.90;;;3.83;;
289;SDS011;13193;48.874;9.086;2022-09-03T07:26:28;5.47;;;2.70;;
289;SDS011;13193;48.874;9.086;2022-09-03T07:28:55;8.13;;;3.13;;
289;SDS011;13193;48.874;9.086;2022-09-03T07:31:22;8.20;;;3.27;;
289;SDS011;13193;48.874;9.086;2022-09-03T07:33:54;15.57;;;4.33;;
289;SDS011;13193;48.874;9.086;2022-09-03T07:36:20;7.90;;;3.53;;
289;SDS011;13193;48.874;9.086;2022-09-03T07:38:47;6.87;;;3.70;;
289;SDS011;13193;48.874;9.086;2022-09-03T07:41:13;6.60;;;4.27;;
289;SDS011;13193;48.874;9.086;2022-09-03T07:43:40;5.67;;;3.03;;
289;SDS011;13193;48.874;9.086;2022-09-03T07:46:11;7.27;;;3.70;;
289;SDS011;13193;48.874;9.086;2022-09-03T07:48:40;6.00;;;3.80;;
289;SDS011;13193;48.874;9.086;2022-09-03T07:51:07;5.60;;;3.70;;
289;SDS011;13193;48.874;9.086;2022-09-03T07:53:33;7.10;;;3.70;;
289;SDS011;13193;48.874;9.086;2022-09-03T07:56:06;4.57;;;3.17;;
289;SDS011;13193;48.874;9.086;2022-09-03T07:58:34;7.60;;;3.73;;
289;SDS011;13193;48.874;9.086;2022-09-03T08:01:04;4.67;;;3.67;;
289;SDS011;13193;48.874;9.086;2022-09-03T08:03:32;5.97;;;3.40;;
289;SDS011;13193;48.874;9.086;2022-09-03T08:05:59;5.70;;;3.70;;
289;SDS011;13193;48.874;9.086;2022-09-03T08:08:32;5.90;;;3.73;;
289;SDS011;13193;48.874;9.086;2022-09-03T08:11:10;7.60;;;3.80;;
289;SDS011;13193;48.874;9.086;2022-09-03T08:13:38;10.10;;;3.40;;
289;SDS011;13193;48.874;9.086;2022-09-03T08:16:05;7.87;;;4.00;;
289;SDS011;13193;48.874;9.086;2022-09-03T08:18:33;4.77;;;3.03;;
289;SDS011;13193;48.874;9.086;2022-09-03T08:21:02;6.43;;;3.63;;
289;SDS011;13193;48.874;9.086;2022-09-03T08:23:47;6.80;;;3.40;;
289;SDS011;13193;48.874;9.086;2022-09-03T08:26:15;7.03;;;3.93;;
289;SDS011;13193;48.874;9.086;2022-09-03T08:28:42;4.87;;;3.87;;
289;SDS011;13193;48.874;9.086;2022-09-03T08:31:10;5.03;;;3.50;;
289;SDS011;13193;48.874;9.086;2022-09-03T08:33:38;15.30;;;4.37;;
289;SDS011;13193;48.874;9.086;2022-09-03T08:36:24;6.33;;;4.17;;
289;SDS011;13193;48.874;9.086;2022-09-03T08:38:52;18.07;;;4.80;;
289;SDS011;13193;48.874;9.086;2022-09-03T08:47:22;7.30;;;3.80;;
289;SDS011;13193;48.874;9.086;2022-09-03T08:52:36;24.10;;;3.93;;
289;SDS011;13193;48.874;9.086;2022-09-03T08:57:45;4.33;;;3.00;;
289;SDS011;13193;48.874;9.086;2022-09-03T09:00:13;14.10;;;3.57;;
289;SDS011;13193;48.874;9.086;2022-09-03T09:08:15;5.73;;;3.07;;
289;SDS011;13193;48.874;9.086;2022-09-03T09:11:07;8.33;;;3.60;;
289;SDS011;13193;48.874;9.086;2022-09-03T09:14:25;4.83;;;3.43;;
289;SDS011;13193;48.874;9.086;2022-09-03T09:17:14;4.40;;;3.00;;
289;SDS011;13193;48.874;9.086;2022-09-03T09:22:43;6.37;;;3.60;;
289;SDS011;13193;48.874;9.086;2022-09-03T09:25:18;9.43;;;3.13;;
289;SDS011;13193;48.874;9.086;2022-09-03T09:27:59;6.30;;;3.17;;
289;SDS011;13193;48.874;9.086;2022-09-03T09:30:28;4.50;;;2.83;;
289;SDS011;13193;48.874;9.086;2022-09-03T09:32:55;5.73;;;3.27;;
289;SDS011;13193;48.874;9.086;2022-09-03T09:35:21;6.87;;;3.97;;
289;SDS011;13193;48.874;9.086;2022-09-03T09:37:51;5.30;;;2.83;;
289;SDS011;13193;48.874;9.086;2022-09-03T09:43:13;4.47;;;3.23;;
289;SDS011;13193;48.874;9.086;2022-09-03T09:45:44;5.23;;;2.87;;
289;SDS011;13193;48.874;9.086;2022-09-03T09:48:23;9.90;;;3.47;;
289;SDS011;13193;48.874;9.086;2022-09-03T09:53:47;3.90;;;2.60;;
289;SDS011;13193;48.874;9.086;2022-09-03T09:56:24;5.83;;;3.03;;
289;SDS011;13193;48.874;9.086;2022-09-03T09:59:00;4.30;;;2.90;;
289;SDS011;13193;48.874;9.086;2022-09-03T10:01:30;5.30;;;3.30;;
289;SDS011;13193;48.874;9.086;2022-09-03T10:03:58;4.80;;;2.90;;
289;SDS011;13193;48.874;9.086;2022-09-03T10:06:31;10.50;;;2.70;;
289;SDS011;13193;48.874;9.086;2022-09-03T10:09:16;4.77;;;2.87;;
289;SDS011;13193;48.874;9.086;2022-09-03T10:11:47;10.40;;;3.13;;
289;SDS011;13193;48.874;9.086;2022-09-03T10:14:19;3.70;;;2.83;;
289;SDS011;13193;48.874;9.086;2022-09-03T10:17:08;7.03;;;2.40;;
289;SDS011;13193;48.874;9.086;2022-09-03T10:19:55;6.97;;;3.00;;
289;SDS011;13193;48.874;9.086;2022-09-03T10:22:55;8.83;;;3.10;;
289;SDS011;13193;48.874;9.086;2022-09-03T10:25:38;5.60;;;3.40;;
289;SDS011;13193;48.874;9.086;2022-09-03T10:28:34;13.37;;;3.47;;
289;SDS011;13193;48.874;9.086;2022-09-03T10:33:46;5.10;;;2.90;;
289;SDS011;13193;48.874;9.086;2022-09-03T10:36:24;8.07;;;3.47;;
289;SDS011;13193;48.874;9.086;2022-09-03T10:39:05;14.23;;;3.53;;
289;SDS011;13193;48.874;9.086;2022-09-03T10:41:42;6.30;;;3.47;;
289;SDS011;13193;48.874;9.086;2022-09-03T10:44:19;7.90;;;3.63;;
289;SDS011;13193;48.874;9.086;2022-09-03T11:04:45;7.80;;;4.50;;
289;SDS011;13193;48.874;9.086;2022-09-03T11:07:44;7.50;;;4.00;;
289;SDS011;13193;48.874;9.086;2022-09-03T11:10:30;8.10;;;3.97;;
289;SDS011;13193;48.874;9.086;2022-09-03T11:15:52;7.00;;;3.83;;
289;SDS011;13193;48.874;9.086;2022-09-03T11:18:24;9.63;;;4.20;;
289;SDS011;13193;48.874;9.086;2022-09-03T11:21:00;8.57;;;4.07;;
289;SDS011;13193;48.874;9.086;2022-09-03T11:23:30;9.37;;;4.13;;
289;SDS011;13193;48.874;9.086;2022-09-03T11:26:04;5.13;;;3.30;;
289;SDS011;13193;48.874;9.086;2022-09-03T11:28:38;6.40;;;4.20;;
289;SDS011;13193;48.874;9.086;2022-09-03T11:31:15;4.43;;;3.20;;
289;SDS011;13193;48.874;9.086;2022-09-03T11:34:46;5.67;;;3.13;;
289;SDS011;13193;48.874;9.086;2022-09-03T11:36:51;6.77;;;3.90;;
289;SDS011;13193;48.874;9.086;2022-09-03T11:41:56;6.40;;;3.77;;
289;SDS011;13193;48.874;9.086;2022-09-03T11:44:37;6.00;;;3.67;;
289;SDS011;13193;48.874;9.086;2022-09-03T11:47:16;5.10;;;3.77;;
289;SDS011;13193;48.874;9.086;2022-09-03T11:50:07;6.23;;;4.00;;
289;SDS011;13193;48.874;9.086;2022-09-03T11:52:44;10.60;;;3.10;;
289;SDS011;13193;48.874;9.086;2022-09-03T11:55:26;5.20;;;3.40;;
289;SDS011;13193;48.874;9.086;2022-09-03T11:57:55;5.17;;;3.67;;
289;SDS011;13193;48.874;9.086;2022-09-03T12:00:21;4.80;;;3.67;;
289;SDS011;13193;48.874;9.086;2022-09-03T12:02:56;4.33;;;3.07;;
289;SDS011;13193;48.874;9.086;2022-09-03T12:06:32;6.73;;;4.03;;
289;SDS011;13193;48.874;9.086;2022-09-03T12:08:49;4.10;;;2.60;;
289;SDS011;13193;48.874;9.086;2022-09-03T12:11:40;6.03;;;3.23;;
289;SDS011;13193;48.874;9.086;2022-09-03T12:16:44;10.33;;;2.93;;
289;SDS011;13193;48.874;9.086;2022-09-03T12:21:57;5.40;;;3.60;;
289;SDS011;13193;48.874;9.086;2022-09-03T12:24:25;6.10;;;3.10;;
289;SDS011;13193;48.874;9.086;2022-09-03T12:26:56;6.47;;;3.30;;
289;SDS011;13193;48.874;9.086;2022-09-03T12:29:23;5.00;;;3.10;;
289;SDS011;13193;48.874;9.086;2022-09-03T12:31:50;3.70;;;2.63;;
289;SDS011;13193;48.874;9.086;2022-09-03T12:34:17;6.30;;;3.60;;
289;SDS011;13193;48.874;9.086;2022-09-03T12:36:51;5.30;;;4.00;;
289;SDS011;13193;48.874;9.086;2022-09-03T12:44:31;7.60;;;3.03;;
289;SDS011;13193;48.874;9.086;2022-09-03T12:47:04;6.60;;;2.50;;
289;SDS011;13193;48.874;9.086;2022-09-03T12:49:42;4.53;;;2.60;;
289;SDS011;13193;48.874;9.086;2022-09-03T12:57:30;5.03;;;1.20;;
289;SDS011;13193;48.874;9.086;2022-09-03T13:00:15;1.80;;;1.13;;
289;SDS011;13193;48.874;9.086;2022-09-03T13:05:48;6.67;;;2.87;;
289;SDS011;13193;48.874;9.086;2022-09-03T13:08:25;3.10;;;0.97;;
289;SDS011;13193;48.874;9.086;2022-09-03T13:10:54;2.07;;;1.33;;
289;SDS011;13193;48.874;9.086;2022-09-03T13:13:24;6.97;;;1.70;;
289;SDS011;13193;48.874;9.086;2022-09-03T13:15:57;5.20;;;1.10;;
289;SDS011;13193;48.874;9.086;2022-09-03T13:35:39;11.50;;;1.57;;
289;SDS011;13193;48.874;9.086;2022-09-03T13:43:42;6.70;;;0.97;;
289;SDS011;13193;48.874;9.086;2022-09-03T13:46:19;3.10;;;1.30;;
289;SDS011;13193;48.874;9.086;2022-09-03T13:48:55;2.50;;;1.10;;
289;SDS011;13193;48.874;9.086;2022-09-03T13:51:53;2.37;;;1.20;;
289;SDS011;13193;48.874;9.086;2022-09-03T13:54:29;5.20;;;1.60;;
289;SDS011;13193;48.874;9.086;2022-09-03T13:57:16;3.07;;;1.60;;
289;SDS011;13193;48.874;9.086;2022-09-03T14:00:05;4.53;;;1.30;;
289;SDS011;13193;48.874;9.086;2022-09-03T14:20:13;2.60;;;1.50;;
289;SDS011;13193;48.874;9.086;2022-09-03T14:22:57;3.40;;;1.20;;
289;SDS011;13193;48.874;9.086;2022-09-03T14:25:51;2.17;;;1.53;;
289;SDS011;13193;48.874;9.086;2022-09-03T14:28:30;2.90;;;1.43;;
289;SDS011;13193;48.874;9.086;2022-09-03T14:31:11;4.83;;;2.17;;
289;SDS011;13193;48.874;9.086;2022-09-03T14:39:44;2.93;;;1.97;;
289;SDS011;13193;48.874;9.086;2022-09-03T14:48:19;2.90;;;1.33;;
289;SDS011;13193;48.874;9.086;2022-09-03T15:08:08;5.27;;;2.43;;
289;SDS011;13193;48.874;9.086;2022-09-03T15:11:00;1.70;;;1.30;;
289;SDS011;13193;48.874;9.086;2022-09-03T15:13:34;3.90;;;2.10;;
289;SDS011;13193;48.874;9.086;2022-09-03T15:24:50;2.83;;;1.70;;
289;SDS011;13193;48.874;9.086;2022-09-03T15:30:15;4.10;;;2.40;;
289;SDS011;13193;48.874;9.086;2022-09-03T15:41:09;6.07;;;2.67;;
289;SDS011;13193;48.874;9.086;2022-09-03T15:43:56;4.13;;;2.10;;
289;SDS011;13193;48.874;9.086;2022-09-03T15:47:27;5.23;;;1.90;;
289;SDS011;13193;48.874;9.086;2022-09-03T15:52:20;2.83;;;1.63;;
289;SDS011;13193;48.874;9.086;2022-09-03T15:55:13;3.33;;;2.07;;
289;SDS011;13193;48.874;9.086;2022-09-03T15:58:00;2.80;;;1.40;;
289;SDS011;13193;48.874;9.086;2022-09-03T16:00:55;3.20;;;2.40;;
289;SDS011;13193;48.874;9.086;2022-09-03T16:03:43;3.67;;;2.60;;
289;SDS011;13193;48.874;9.086;2022-09-03T16:14:40;4.03;;;2.70;;
289;SDS011;13193;48.874;9.086;2022-09-03T16:20:13;4.20;;;2.50;;
289;SDS011;13193;48.874;9.086;2022-09-03T16:22:59;3.83;;;2.67;;
289;SDS011;13193;48.874;9.086;2022-09-03T16:25:33;3.93;;;2.63;;
289;SDS011;13193;48.874;9.086;2022-09-03T16:28:14;6.33;;;3.07;;
289;SDS011;13193;48.874;9.086;2022-09-03T16:30:49;8.60;;;3.40;;
289;SDS011;13193;48.874;9.086;2022-09-03T16:42:03;8.47;;;2.90;;
289;SDS011;13193;48.874;9.086;2022-09-03T16:44:44;4.80;;;2.63;;
289;SDS011;13193;48.874;9.086;2022-09-03T16:50:20;5.70;;;3.27;;
289;SDS011;13193;48.874;9.086;2022-09-03T16:53:27;10.07;;;5.17;;
289;SDS011;13193;48.874;9.086;2022-09-03T16:59:00;5.10;;;2.90;;
289;SDS011;13193;48.874;9.086;2022-09-03T17:01:52;6.50;;;2.73;;
289;SDS011;13193;48.874;9.086;2022-09-03T17:32:26;6.37;;;3.23;;
289;SDS011;13193;48.874;9.086;2022-09-03T17:35:06;3.60;;;2.67;;
289;SDS011;13193;48.874;9.086;2022-09-03T17:48:47;6.70;;;3.97;;
289;SDS011;13193;48.874;9.086;2022-09-03T17:59:42;11.10;;;3.43;;
289;SDS011;13193;48.874;9.086;2022-09-03T18:04:58;9.63;;;3.90;;
289;SDS011;13193;48.874;9.086;2022-09-03T18:10:24;5.50;;;3.17;;
289;SDS011;13193;48.874;9.086;2022-09-03T18:15:52;9.03;;;4.40;;
289;SDS011;13193;48.874;9.086;2022-09-03T18:18:31;10.70;;;4.90;;
289;SDS011;13193;48.874;9.086;2022-09-03T18:20:59;16.30;;;7.80;;
289;SDS011;13193;48.874;9.086;2022-09-03T18:27:06;10.50;;;6.40;;
289;SDS011;13193;48.874;9.086;2022-09-03T18:30:00;9.90;;;6.00;;
289;SDS011;13193;48.874;9.086;2022-09-03T18:32:44;13.40;;;5.43;;
289;SDS011;13193;48.874;9.086;2022-09-03T18:35:29;10.50;;;4.40;;
289;SDS011;13193;48.874;9.086;2022-09-03T18:38:14;10.77;;;5.83;;
289;SDS011;13193;48.874;9.086;2022-09-03T18:41:15;11.03;;;4.90;;
289;SDS011;13193;48.874;9.086;2022-09-03T18:44:58;10.03;;;5.00;;
289;SDS011;13193;48.874;9.086;2022-09-03T18:47:26;11.17;;;5.43;;
289;SDS011;13193;48.874;9.086;2022-09-03T18:56:05;8.30;;;4.53;;
289;SDS011;13193;48.874;9.086;2022-09-03T18:59:21;13.53;;;6.13;;
289;SDS011;13193;48.874;9.086;2022-09-03T19:05:37;11.80;;;6.07;;
289;SDS011;13193;48.874;9.086;2022-09-03T19:24:17;9.23;;;5.17;;
289;SDS011;13193;48.874;9.086;2022-09-03T19:27:06;8.13;;;5.00;;
289;SDS011;13193;48.874;9.086;2022-09-03T19:30:02;11.37;;;5.77;;
289;SDS011;13193;48.874;9.086;2022-09-03T19:32:58;8.30;;;5.50;;
289;SDS011;13193;48.874;9.086;2022-09-03T19:36:04;8.60;;;5.20;;
289;SDS011;13193;48.874;9.086;2022-09-03T19:42:01;14.13;;;6.90;;
289;SDS011;13193;48.874;9.086;2022-09-03T19:51:20;15.90;;;6.87;;
289;SDS011;13193;48.874;9.086;2022-09-03T19:54:11;13.77;;;7.50;;
289;SDS011;13193;48.874;9.086;2022-09-03T19:56:56;10.87;;;6.47;;
289;SDS011;13193;48.874;9.086;2022-09-03T19:59:41;11.07;;;7.43;;
289;SDS011;13193;48.874;9.086;2022-09-03T20:02:30;13.53;;;6.07;;
289;SDS011;13193;48.874;9.086;2022-09-03T20:05:17;12.73;;;5.90;;
289;SDS011;13193;48.874;9.086;2022-09-03T20:08:05;11.70;;;6.87;;
289;SDS011;13193;48.874;9.086;2022-09-03T20:10:52;15.70;;;7.30;;
289;SDS011;13193;48.874;9.086;2022-09-03T20:13:21;18.63;;;6.97;;
289;SDS011;13193;48.874;9.086;2022-09-03T20:23:56;11.20;;;6.43;;
289;SDS011;13193;48.874;9.086;2022-09-03T20:32:02;15.53;;;8.10;;
289;SDS011;13193;48.874;9.086;2022-09-03T20:37:20;12.37;;;7.50;;
289;SDS011;13193;48.874;9.086;2022-09-03T20:42:45;15.93;;;9.33;;
289;SDS011;13193;48.874;9.086;2022-09-03T20:48:07;13.83;;;7.13;;
289;SDS011;13193;48.874;9.086;2022-09-03T20:58:47;16.60;;;9.57;;
289;SDS011;13193;48.874;9.086;2022-09-03T21:01:38;18.50;;;7.50;;
289;SDS011;13193;48.874;9.086;2022-09-03T21:04:22;12.03;;;6.10;;
289;SDS011;13193;48.874;9.086;2022-09-03T21:24:07;20.40;;;6.70;;
289;SDS011;13193;48.874;9.086;2022-09-03T21:26:40;12.10;;;6.90;;
289;SDS011;13193;48.874;9.086;2022-09-03T21:29:26;11.50;;;5.50;;
289;SDS011;13193;48.874;9.086;2022-09-03T21:37:19;15.13;;;7.10;;
289;SDS011;13193;48.874;9.086;2022-09-03T21:39:51;10.83;;;6.03;;
289;SDS011;13193;48.874;9.086;2022-09-03T21:42:29;12.50;;;6.17;;
289;SDS011;13193;48.874;9.086;2022-09-03T21:48:16;13.60;;;5.73;;
289;SDS011;13193;48.874;9.086;2022-09-03T22:04:45;10.20;;;5.80;;
289;SDS011;13193;48.874;9.086;2022-09-03T22:10:16;14.83;;;7.33;;
289;SDS011;13193;48.874;9.086;2022-09-03T22:13:08;17.37;;;7.83;;
289;SDS011;13193;48.874;9.086;2022-09-03T22:16:04;16.10;;;8.60;;
289;SDS011;13193;48.874;9.086;2022-09-03T22:18:47;17.67;;;7.20;;
289;SDS011;13193;48.874;9.086;2022-09-03T22:29:58;18.60;;;8.80;;
289;SDS011;13193;48.874;9.086;2022-09-03T22:51:01;22.77;;;8.73;;
289;SDS011;13193;48.874;9.086;2022-09-03T22:56:14;22.40;;;10.43;;
289;SDS011;13193;48.874;9.086;2022-09-03T23:01:26;25.70;;;10.50;;
289;SDS011;13193;48.874;9.086;2022-09-03T23:04:06;19.03;;;8.60;;
289;SDS011;13193;48.874;9.086;2022-09-03T23:07:04;18.47;;;8.80;;
289;SDS011;13193;48.874;9.086;2022-09-03T23:09:37;13.70;;;8.50;;
289;SDS011;13193;48.874;9.086;2022-09-03T23:12:15;23.43;;;10.27;;
289;SDS011;13193;48.874;9.086;2022-09-03T23:14:46;18.80;;;9.13;;
289;SDS011;13193;48.874;9.086;2022-09-03T23:17:31;25.23;;;9.57;;
289;SDS011;13193;48.874;9.086;2022-09-03T23:20:33;13.20;;;7.30;;
289;SDS011;13193;48.874;9.086;2022-09-03T23:23:26;15.10;;;8.67;;
289;SDS011;13193;48.874;9.086;2022-09-03T23:25:54;16.67;;;9.23;;
289;SDS011;13193;48.874;9.086;2022-09-03T23:29:15;23.03;;;8.17;;